createdAt,value
2019-05-29T00:00:31.081Z,97820.49
2019-05-29T00:03:03.099Z,97819.85
2019-05-29T00:05:35.047Z,97819.62
2019-05-29T00:08:08.114Z,97819.99
2019-05-29T00:10:41.193Z,97819.12
2019-05-29T00:13:14.386Z,97822.96
2019-05-29T00:15:46.503Z,97830.15
2019-05-29T00:18:18.672Z,97831.28
2019-05-29T00:20:50.684Z,97832.81
2019-05-29T00:23:22.657Z,97832.88
2019-05-29T00:25:54.633Z,97830.84
2019-05-29T00:28:26.601Z,97836.22
2019-05-29T00:30:58.560Z,97838.43
2019-05-29T00:33:30.598Z,97841.97
2019-05-29T00:36:02.585Z,97840.48
2019-05-29T00:38:34.566Z,97843.77
2019-05-29T00:41:06.775Z,97843.20
2019-05-29T00:43:38.790Z,97850.58
2019-05-29T00:46:11.388Z,97851.86
2019-05-29T00:48:43.421Z,97852.23
2019-05-29T00:51:15.357Z,97852.80
2019-05-29T00:53:47.359Z,97854.64
2019-05-29T00:56:19.281Z,97859.86
2019-05-29T00:58:51.246Z,97862.58
2019-05-29T01:01:23.183Z,97858.73
2019-05-29T01:03:55.155Z,97858.73
2019-05-29T01:06:27.116Z,97864.67
2019-05-29T01:08:59.103Z,97862.33
2019-05-29T01:11:31.057Z,97864.48
2019-05-29T01:14:03.173Z,97866.94
2019-05-29T01:16:35.139Z,97872.31
2019-05-29T01:19:25.459Z,97877.69
2019-05-29T01:21:57.596Z,97881.76
2019-05-29T01:24:29.767Z,97884.32
2019-05-29T01:27:01.738Z,97883.51
2019-05-29T01:29:33.683Z,97889.48
2019-05-29T01:32:05.620Z,97884.32
2019-05-29T01:34:37.611Z,97885.91
2019-05-29T01:37:09.594Z,97884.30
2019-05-29T01:39:41.553Z,97891.58
2019-05-29T01:42:13.518Z,97885.27
2019-05-29T01:44:45.473Z,97896.25
2019-05-29T01:47:17.477Z,97890.03
2019-05-29T01:49:49.431Z,97887.86
2019-05-29T01:52:21.896Z,97900.41
2019-05-29T01:54:55.439Z,97905.97
2019-05-29T01:57:28.021Z,97908.89
2019-05-29T02:00:00.069Z,97903.23
2019-05-29T02:02:32.043Z,97903.56
2019-05-29T02:05:04.172Z,97920.50
2019-05-29T02:07:36.150Z,97920.50
2019-05-29T02:10:08.216Z,97907.84
2019-05-29T02:12:40.181Z,97913.47
2019-05-29T02:15:23.733Z,97923.20
2019-05-29T02:17:46.306Z,97925.69
2019-05-29T02:20:19.131Z,97924.58
2019-05-29T02:22:51.059Z,97924.58
2019-05-29T02:25:24.246Z,97931.75
2019-05-29T02:27:56.689Z,97938.31
2019-05-29T02:30:30.898Z,97939.36
2019-05-29T02:33:02.564Z,97936.47
2019-05-29T02:35:34.505Z,97939.66
2019-05-29T02:38:06.465Z,97940.20
2019-05-29T02:40:38.415Z,97947.71
2019-05-29T02:43:10.384Z,97943.84
2019-05-29T02:45:53.766Z,97949.09
2019-05-29T02:48:16.190Z,97951.08
2019-05-29T02:50:48.153Z,97958.41
2019-05-29T02:53:20.237Z,97958.88
2019-05-29T02:55:52.164Z,97955.92
2019-05-29T02:58:25.817Z,97960.03
2019-05-29T03:00:58.010Z,97962.25
2019-05-29T03:03:37.977Z,97967.03
2019-05-29T03:06:04.103Z,97967.03
2019-05-29T03:08:36.082Z,97975.81
2019-05-29T03:11:08.061Z,97975.81
2019-05-29T03:13:40.064Z,97970.33
2019-05-29T03:16:13.051Z,97985.11
2019-05-29T03:18:45.379Z,97986.39
2019-05-29T03:21:17.321Z,97991.50
2019-05-29T03:23:49.296Z,97991.38
2019-05-29T03:26:24.739Z,97988.69
2019-05-29T03:28:55.146Z,97994.07
2019-05-29T03:31:30.959Z,97994.07
2019-05-29T03:34:01.032Z,98006.13
2019-05-29T03:36:39.290Z,98006.13
2019-05-29T03:39:06.856Z,98013.97
2019-05-29T03:41:39.179Z,98021.07
2019-05-29T03:44:11.224Z,98021.31
2019-05-29T03:46:45.955Z,98026.94
2019-05-29T03:49:17.097Z,98033.87
2019-05-29T03:51:49.037Z,98037.30
2019-05-29T03:54:21.067Z,98039.92
2019-05-29T03:56:52.999Z,98045.23
2019-05-29T03:59:26.581Z,98057.02
2019-05-29T04:01:58.725Z,98057.02
2019-05-29T04:04:31.359Z,98063.54
2019-05-29T04:07:03.858Z,98068.48
2019-05-29T04:09:37.272Z,98068.48
2019-05-29T04:12:10.545Z,98067.38
2019-05-29T04:14:42.501Z,98067.38
2019-05-29T04:17:14.576Z,98067.88
2019-05-29T04:19:46.567Z,98076.55
2019-05-29T04:22:21.960Z,98074.38
2019-05-29T04:24:54.217Z,98080.70
2019-05-29T04:27:27.860Z,98078.83
2019-05-29T04:30:01.825Z,98085.33
2019-05-29T04:32:34.247Z,98082.91
2019-05-29T04:35:06.802Z,98090.28
2019-05-29T04:37:39.795Z,98089.81
2019-05-29T04:40:12.101Z,98089.67
2019-05-29T04:42:44.025Z,98093.59
2019-05-29T04:45:16.036Z,98098.00
2019-05-29T04:47:47.990Z,98102.21
2019-05-29T04:50:20.055Z,98109.52
2019-05-29T04:52:52.044Z,98116.27
2019-05-29T04:55:24.029Z,98109.26
2019-05-29T04:57:56.012Z,98121.42
2019-05-29T05:00:29.036Z,98127.93
2019-05-29T05:03:01.048Z,98132.75
2019-05-29T05:05:33.296Z,98130.52
2019-05-29T05:08:05.257Z,98136.97
2019-05-29T05:10:41.026Z,98142.18
2019-05-29T05:13:12.772Z,98151.03
2019-05-29T05:15:45.943Z,98148.37
2019-05-29T05:18:18.026Z,98160.54
2019-05-29T05:20:49.985Z,98150.28
2019-05-29T05:23:21.953Z,98152.53
2019-05-29T05:25:53.920Z,98155.41
2019-05-29T05:28:25.863Z,98153.11
2019-05-29T05:30:57.898Z,98159.28
2019-05-29T05:33:30.413Z,98157.70
2019-05-29T05:36:02.486Z,98160.02
2019-05-29T05:38:34.711Z,98160.33
2019-05-29T05:41:06.787Z,98160.02
2019-05-29T05:43:39.026Z,98153.35
2019-05-29T05:46:11.148Z,98162.84
2019-05-29T05:48:43.074Z,98164.25
2019-05-29T05:51:15.048Z,98162.08
2019-05-29T05:53:47.058Z,98173.29
2019-05-29T05:56:19.012Z,98178.67
2019-05-29T05:58:51.010Z,98175.45
2019-05-29T06:01:22.952Z,98180.92
2019-05-29T06:03:54.968Z,98183.08
2019-05-29T06:06:26.903Z,98177.22
2019-05-29T06:08:58.862Z,98178.29
2019-05-29T06:11:32.084Z,98179.90
2019-05-29T06:14:04.253Z,98181.83
2019-05-29T06:16:36.483Z,98186.21
2019-05-29T06:19:08.582Z,98187.67
2019-05-29T06:21:41.161Z,98190.39
2019-05-29T06:24:13.131Z,98193.25
2019-05-29T06:26:45.084Z,98187.54
2019-05-29T06:29:17.044Z,98199.58
2019-05-29T06:31:49.018Z,98199.67
2019-05-29T06:34:20.986Z,98209.82
2019-05-29T06:36:52.954Z,98204.45
2019-05-29T06:39:24.948Z,98203.72
2019-05-29T06:41:56.902Z,98208.13
2019-05-29T06:44:28.870Z,98209.36
2019-05-29T06:47:00.826Z,98212.80
2019-05-29T06:49:33.839Z,98218.64
2019-05-29T06:52:09.115Z,98222.09
2019-05-29T06:54:40.066Z,98217.78
2019-05-29T06:57:12.043Z,98226.24
2019-05-29T06:59:44.746Z,98230.10
2019-05-29T07:02:16.799Z,98233.96
2019-05-29T07:04:48.794Z,98237.91
2019-05-29T07:07:20.733Z,98249.72
2019-05-29T07:09:52.702Z,98251.59
2019-05-29T07:12:24.680Z,98256.41
2019-05-29T07:14:56.645Z,98259.55
2019-05-29T07:17:28.594Z,98260.12
2019-05-29T07:20:03.951Z,98259.81
2019-05-29T07:22:34.486Z,98259.63
2019-05-29T07:25:06.453Z,98263.29
2019-05-29T07:27:38.810Z,98266.19
2019-05-29T07:30:11.176Z,98276.06
2019-05-29T07:32:49.586Z,98270.31
2019-05-29T07:35:17.007Z,98271.09
2019-05-29T07:37:48.977Z,98279.75
2019-05-29T07:40:21.237Z,98282.05
2019-05-29T07:42:56.456Z,98279.09
2019-05-29T07:45:27.076Z,98279.75
2019-05-29T07:47:59.043Z,98277.48
2019-05-29T07:50:31.053Z,98281.72
2019-05-29T07:53:03.027Z,98286.94
2019-05-29T07:55:35.014Z,98282.43
2019-05-29T07:58:06.961Z,98278.84
2019-05-29T08:01:02.640Z,98282.20
2019-05-29T08:03:12.787Z,98275.16
2019-05-29T08:05:47.959Z,98284.28
2019-05-29T08:08:18.676Z,98279.88
2019-05-29T08:10:50.682Z,98290.36
2019-05-29T08:13:22.635Z,98283.80
2019-05-29T08:16:02.768Z,98289.56
2019-05-29T08:18:28.506Z,98288.80
2019-05-29T08:21:00.510Z,98288.66
2019-05-29T08:23:32.481Z,98288.63
2019-05-29T08:26:04.460Z,98291.25
2019-05-29T08:28:36.410Z,98288.73
2019-05-29T08:31:08.410Z,98286.61
2019-05-29T08:33:40.805Z,98293.45
2019-05-29T08:36:12.916Z,98293.45
2019-05-29T08:38:45.798Z,98291.22
2019-05-29T08:41:17.951Z,98298.55
2019-05-29T08:43:50.785Z,98298.91
2019-05-29T08:46:22.891Z,98294.89
2019-05-29T08:48:54.869Z,98298.63
2019-05-29T08:51:26.910Z,98301.87
2019-05-29T08:53:58.871Z,98302.44
2019-05-29T08:56:30.879Z,98299.52
2019-05-29T08:59:02.955Z,98304.05
2019-05-29T09:01:34.966Z,98313.64
2019-05-29T09:04:06.998Z,98319.09
2019-05-29T09:06:39.121Z,98316.13
2019-05-29T09:09:11.103Z,98316.36
2019-05-29T09:11:43.108Z,98319.66
2019-05-29T09:14:15.082Z,98321.05
2019-05-29T09:16:47.044Z,98328.60
2019-05-29T09:19:21.099Z,98328.05
2019-05-29T09:21:52.907Z,98325.31
2019-05-29T09:24:24.879Z,98330.48
2019-05-29T09:26:56.883Z,98335.30
2019-05-29T09:29:28.867Z,98342.48
2019-05-29T09:32:00.831Z,98344.41
2019-05-29T09:34:32.808Z,98346.16
2019-05-29T09:37:04.792Z,98346.52
2019-05-29T09:39:36.766Z,98347.92
2019-05-29T09:42:08.739Z,98349.74
2019-05-29T09:44:40.709Z,98349.81
2019-05-29T09:47:12.655Z,98355.95
2019-05-29T09:49:44.657Z,98354.00
2019-05-29T09:52:16.625Z,98356.06
2019-05-29T09:54:48.638Z,98357.69
2019-05-29T09:57:20.616Z,98357.95
2019-05-29T09:59:53.786Z,98355.48
2019-05-29T10:02:26.397Z,98358.44
2019-05-29T10:05:00.491Z,98369.07
2019-05-29T10:07:32.259Z,98360.61
2019-05-29T10:10:05.303Z,98365.15
2019-05-29T10:12:37.312Z,98368.86
2019-05-29T10:15:09.738Z,98371.63
2019-05-29T10:17:41.727Z,98367.64
2019-05-29T10:20:14.526Z,98369.30
2019-05-29T10:22:46.462Z,98365.50
2019-05-29T10:25:18.537Z,98370.34
2019-05-29T10:27:50.486Z,98372.64
2019-05-29T10:30:24.297Z,98376.14
2019-05-29T10:32:56.284Z,98377.95
2019-05-29T10:35:28.292Z,98380.24
2019-05-29T10:38:00.270Z,98380.21
2019-05-29T10:40:32.290Z,98379.21
2019-05-29T10:43:04.297Z,98379.05
2019-05-29T10:45:36.372Z,98375.97
2019-05-29T10:48:08.359Z,98373.61
2019-05-29T10:50:40.400Z,98373.41
2019-05-29T10:53:12.382Z,98373.41
2019-05-29T10:55:44.495Z,98375.14
2019-05-29T10:58:16.455Z,98377.72
2019-05-29T11:00:49.125Z,98372.21
2019-05-29T11:03:21.112Z,98378.46
2019-05-29T11:05:53.782Z,98376.16
2019-05-29T11:08:25.780Z,98374.12
2019-05-29T11:10:57.785Z,98376.11
2019-05-29T11:13:29.735Z,98377.80
2019-05-29T11:16:01.720Z,98382.84
2019-05-29T11:18:33.763Z,98379.22
2019-05-29T11:21:05.949Z,98372.73
2019-05-29T11:23:37.978Z,98375.41
2019-05-29T11:26:10.097Z,98376.78
2019-05-29T11:28:42.083Z,98380.33
2019-05-29T11:31:14.206Z,98379.97
2019-05-29T11:33:46.255Z,98387.87
2019-05-29T11:36:18.443Z,98389.73
2019-05-29T11:38:50.577Z,98392.86
2019-05-29T11:41:26.233Z,98393.31
2019-05-29T11:43:56.867Z,98404.88
2019-05-29T11:46:28.945Z,98403.45
2019-05-29T11:49:00.943Z,98403.97
2019-05-29T11:51:33.092Z,98402.81
2019-05-29T11:54:05.081Z,98401.37
2019-05-29T11:56:37.075Z,98404.96
2019-05-29T11:59:09.072Z,98404.14
2019-05-29T12:01:50.173Z,98401.97
2019-05-29T12:04:25.401Z,98401.47
2019-05-29T12:06:48.839Z,98400.33
2019-05-29T12:09:32.316Z,98400.56
2019-05-29T12:11:55.982Z,98401.72
2019-05-29T12:14:28.287Z,98406.98
2019-05-29T12:17:00.640Z,98399.48
2019-05-29T12:19:32.811Z,98399.29
2019-05-29T12:22:04.788Z,98397.47
2019-05-29T12:24:36.758Z,98394.67
2019-05-29T12:27:08.759Z,98398.08
2019-05-29T12:29:40.788Z,98406.00
2019-05-29T12:32:13.044Z,98401.21
2019-05-29T12:34:53.729Z,98406.55
2019-05-29T12:37:19.134Z,98401.86
2019-05-29T12:39:51.202Z,98406.80
2019-05-29T12:42:23.175Z,98398.58
2019-05-29T12:44:55.462Z,98389.39
2019-05-29T12:47:27.794Z,98394.95
2019-05-29T12:50:00.642Z,98391.08
2019-05-29T12:52:33.710Z,98398.80
2019-05-29T12:55:05.893Z,98408.84
2019-05-29T12:57:37.888Z,98413.73
2019-05-29T13:00:11.363Z,98416.20
2019-05-29T13:02:43.387Z,98424.09
2019-05-29T13:05:20.097Z,98429.32
2019-05-29T13:07:49.485Z,98436.55
2019-05-29T13:10:30.678Z,98444.41
2019-05-29T13:13:02.421Z,98452.52
2019-05-29T13:15:29.867Z,98450.80
2019-05-29T13:18:06.254Z,98452.34
2019-05-29T13:20:35.765Z,98449.47
2019-05-29T13:23:08.589Z,98460.56
2019-05-29T13:25:40.578Z,98453.47
2019-05-29T13:28:12.604Z,98449.58
2019-05-29T13:30:44.640Z,98460.14
2019-05-29T13:33:16.689Z,98463.52
2019-05-29T13:35:48.667Z,98452.97
2019-05-29T13:38:20.635Z,98452.08
2019-05-29T13:40:52.665Z,98447.23
2019-05-29T13:43:24.674Z,98445.52
2019-05-29T13:45:56.718Z,98451.94
2019-05-29T13:48:28.718Z,98458.89
2019-05-29T13:51:01.695Z,98454.63
2019-05-29T13:53:33.795Z,98449.61
2019-05-29T13:56:06.201Z,98450.25
2019-05-29T13:58:38.260Z,98460.33
2019-05-29T14:01:10.265Z,98471.69
2019-05-29T14:03:42.251Z,98475.77
2019-05-29T14:06:14.260Z,98485.63
2019-05-29T14:08:46.283Z,98483.59
2019-05-29T14:11:18.284Z,98489.20
2019-05-29T14:13:50.311Z,98489.95
2019-05-29T14:16:25.406Z,98488.34
2019-05-29T14:18:57.433Z,98486.23
2019-05-29T14:21:29.473Z,98493.59
2019-05-29T14:24:02.791Z,98489.48
2019-05-29T14:26:35.397Z,98494.36
2019-05-29T14:29:07.611Z,98494.91
2019-05-29T14:31:39.846Z,98502.70
2019-05-29T14:34:11.833Z,98507.11
2019-05-29T14:36:43.967Z,98503.98
2019-05-29T14:39:16.024Z,98508.41
2019-05-29T14:41:48.011Z,98504.07
2019-05-29T14:44:20.008Z,98510.38
2019-05-29T14:46:52.021Z,98519.39
2019-05-29T14:49:26.939Z,98517.96
2019-05-29T14:51:59.203Z,98522.97
2019-05-29T14:54:41.403Z,98520.03
2019-05-29T14:57:17.474Z,98528.59
2019-05-29T14:59:39.135Z,98522.70
2019-05-29T15:02:19.856Z,98529.20
2019-05-29T15:04:45.003Z,98534.17
2019-05-29T15:07:17.006Z,98535.46
2019-05-29T15:09:49.110Z,98535.78
2019-05-29T15:12:21.099Z,98537.98
2019-05-29T15:14:53.182Z,98542.03
2019-05-29T15:17:25.175Z,98546.13
2019-05-29T15:19:57.204Z,98546.72
2019-05-29T15:22:29.190Z,98535.91
2019-05-29T15:25:11.507Z,98539.19
2019-05-29T15:27:35.107Z,98547.91
2019-05-29T15:30:08.756Z,98543.91
2019-05-29T15:32:41.231Z,98554.53
2019-05-29T15:35:17.613Z,98552.48
2019-05-29T15:37:47.524Z,98556.91
2019-05-29T15:40:19.549Z,98549.55
2019-05-29T15:42:51.586Z,98555.18
2019-05-29T15:45:23.723Z,98552.31
2019-05-29T15:47:55.729Z,98553.63
2019-05-29T15:50:27.747Z,98555.20
2019-05-29T15:52:59.789Z,98558.05
2019-05-29T15:55:34.744Z,98562.70
2019-05-29T15:58:07.128Z,98564.49
2019-05-29T16:00:39.407Z,98566.27
2019-05-29T16:03:11.568Z,98569.97
2019-05-29T16:05:43.642Z,98578.52
2019-05-29T16:08:16.095Z,98579.30
2019-05-29T16:10:48.273Z,98572.10
2019-05-29T16:13:20.280Z,98581.23
2019-05-29T16:15:52.306Z,98586.41
2019-05-29T16:18:29.217Z,98587.59
2019-05-29T16:20:58.279Z,98589.05
2019-05-29T16:23:35.896Z,98587.97
2019-05-29T16:26:04.242Z,98594.16
2019-05-29T16:28:36.396Z,98586.75
2019-05-29T16:31:08.468Z,98587.16
2019-05-29T16:33:40.500Z,98580.56
2019-05-29T16:36:12.690Z,98586.59
2019-05-29T16:38:44.734Z,98590.14
2019-05-29T16:41:17.935Z,98595.54
2019-05-29T16:43:50.085Z,98597.13
2019-05-29T16:46:24.060Z,98593.16
2019-05-29T16:48:55.984Z,98599.59
2019-05-29T16:51:28.138Z,98602.80
2019-05-29T16:54:00.137Z,98603.05
2019-05-29T16:56:32.185Z,98605.33
2019-05-29T16:59:04.200Z,98610.01
2019-05-29T17:01:36.226Z,98606.93
2019-05-29T17:04:08.241Z,98605.84
2019-05-29T17:06:40.245Z,98600.34
2019-05-29T17:09:12.236Z,98607.28
2019-05-29T17:11:44.261Z,98611.87
2019-05-29T17:14:16.492Z,98612.19
2019-05-29T17:16:48.585Z,98609.35
2019-05-29T17:19:20.737Z,98609.45
2019-05-29T17:21:52.752Z,98611.14
2019-05-29T17:24:25.104Z,98615.01
2019-05-29T17:26:57.189Z,98611.87
2019-05-29T17:29:29.204Z,98616.61
2019-05-29T17:32:01.441Z,98618.52
2019-05-29T17:34:33.700Z,98616.51
2019-05-29T17:37:05.795Z,98616.25
2019-05-29T17:39:37.754Z,98617.96
2019-05-29T17:42:09.795Z,98620.16
2019-05-29T17:44:41.792Z,98627.38
2019-05-29T17:47:13.789Z,98626.66
2019-05-29T17:49:45.790Z,98628.77
2019-05-29T17:52:17.847Z,98629.17
2019-05-29T17:54:49.827Z,98629.95
2019-05-29T17:57:22.068Z,98632.94
2019-05-29T17:59:54.200Z,98634.64
2019-05-29T18:02:26.425Z,98628.83
2019-05-29T18:04:58.435Z,98635.77
2019-05-29T18:07:30.503Z,98632.54
2019-05-29T18:10:02.648Z,98642.47
2019-05-29T18:12:34.680Z,98638.03
2019-05-29T18:15:07.429Z,98640.52
2019-05-29T18:17:39.490Z,98647.27
2019-05-29T18:20:14.510Z,98647.83
2019-05-29T18:22:45.433Z,98656.12
2019-05-29T18:25:18.154Z,98655.50
2019-05-29T18:27:50.242Z,98651.64
2019-05-29T18:30:24.378Z,98657.25
2019-05-29T18:32:56.604Z,98656.62
2019-05-29T18:35:29.064Z,98659.77
2019-05-29T18:38:01.221Z,98652.67
2019-05-29T18:40:33.240Z,98652.67
2019-05-29T18:43:05.340Z,98661.67
2019-05-29T18:45:37.417Z,98656.38
2019-05-29T18:48:09.481Z,98653.80
2019-05-29T18:50:44.241Z,98658.56
2019-05-29T18:53:15.545Z,98655.42
2019-05-29T18:55:47.585Z,98657.84
2019-05-29T18:58:19.686Z,98654.59
2019-05-29T19:00:51.749Z,98660.80
2019-05-29T19:03:23.796Z,98657.09
2019-05-29T19:05:55.814Z,98668.72
2019-05-29T19:08:27.876Z,98673.78
2019-05-29T19:10:59.932Z,98672.94
2019-05-29T19:13:32.136Z,98680.72
2019-05-29T19:16:04.528Z,98681.00
2019-05-29T19:18:36.548Z,98682.46
2019-05-29T19:21:08.610Z,98686.52
2019-05-29T19:23:40.636Z,98693.02
2019-05-29T19:26:12.721Z,98698.80
2019-05-29T19:28:44.786Z,98704.08
2019-05-29T19:31:16.851Z,98719.77
2019-05-29T19:33:48.849Z,98716.55
2019-05-29T19:36:20.927Z,98724.66
2019-05-29T19:38:53.013Z,98726.13
2019-05-29T19:41:25.765Z,98728.31
2019-05-29T19:43:57.861Z,98733.32
2019-05-29T19:46:31.074Z,98734.61
2019-05-29T19:49:03.673Z,98745.33
2019-05-29T19:51:35.833Z,98743.72
2019-05-29T19:54:07.813Z,98754.26
2019-05-29T19:56:39.835Z,98758.23
2019-05-29T19:59:11.859Z,98760.64
2019-05-29T20:01:43.902Z,98763.59
2019-05-29T20:04:15.930Z,98761.94
2019-05-29T20:06:48.000Z,98763.92
2019-05-29T20:09:19.995Z,98777.56
2019-05-29T20:11:52.054Z,98775.80
2019-05-29T20:14:24.084Z,98773.93
2019-05-29T20:16:56.233Z,98780.02
2019-05-29T20:19:30.392Z,98789.92
2019-05-29T20:22:02.294Z,98800.67
2019-05-29T20:24:34.982Z,98797.70
2019-05-29T20:27:07.050Z,98804.60
2019-05-29T20:29:39.107Z,98807.46
2019-05-29T20:32:11.135Z,98809.63
2019-05-29T20:34:43.525Z,98815.16
2019-05-29T20:37:15.631Z,98819.13
2019-05-29T20:39:47.651Z,98817.47
2019-05-29T20:42:19.671Z,98818.64
2019-05-29T20:44:51.741Z,98824.95
2019-05-29T20:47:23.854Z,98823.67
2019-05-29T20:49:56.380Z,98826.82
2019-05-29T20:52:28.415Z,98832.84
2019-05-29T20:55:00.471Z,98834.73
2019-05-29T20:57:33.778Z,98837.49
2019-05-29T21:00:07.425Z,98834.84
2019-05-29T21:02:40.432Z,98835.64
2019-05-29T21:05:12.799Z,98846.78
2019-05-29T21:07:44.899Z,98850.24
2019-05-29T21:10:18.501Z,98850.45
2019-05-29T21:12:50.624Z,98850.85
2019-05-29T21:15:22.641Z,98854.11
2019-05-29T21:17:54.688Z,98854.61
2019-05-29T21:20:29.095Z,98854.31
2019-05-29T21:23:00.611Z,98849.95
2019-05-29T21:25:32.711Z,98847.39
2019-05-29T21:28:05.321Z,98847.91
2019-05-29T21:30:37.527Z,98848.69
2019-05-29T21:33:12.500Z,98848.97
2019-05-29T21:35:44.598Z,98851.74
2019-05-29T21:38:16.658Z,98860.03
2019-05-29T21:40:48.680Z,98856.39
2019-05-29T21:43:20.691Z,98857.36
2019-05-29T21:45:52.722Z,98861.72
2019-05-29T21:48:24.777Z,98858.25
2019-05-29T21:50:56.832Z,98860.91
2019-05-29T21:53:28.851Z,98858.74
2019-05-29T21:56:00.835Z,98859.23
2019-05-29T21:58:32.872Z,98857.95
2019-05-29T22:01:04.894Z,98871.97
2019-05-29T22:03:38.246Z,98868.72
2019-05-29T22:06:10.432Z,98870.08
2019-05-29T22:08:42.841Z,98870.48
2019-05-29T22:11:15.146Z,98876.90
2019-05-29T22:13:47.108Z,98873.66
2019-05-29T22:16:19.154Z,98875.91
2019-05-29T22:18:51.119Z,98876.19
2019-05-29T22:21:23.139Z,98879.03
2019-05-29T22:23:55.176Z,98879.78
2019-05-29T22:26:27.080Z,98880.75
2019-05-29T22:29:16.699Z,98883.52
2019-05-29T22:31:32.980Z,98889.04
2019-05-29T22:34:04.982Z,98884.91
2019-05-29T22:36:36.986Z,98887.59
2019-05-29T22:39:08.970Z,98884.36
2019-05-29T22:41:40.964Z,98885.03
2019-05-29T22:44:12.952Z,98886.92
2019-05-29T22:46:44.937Z,98887.40
2019-05-29T22:49:16.927Z,98888.55
2019-05-29T22:51:48.930Z,98891.33
2019-05-29T22:54:20.910Z,98892.61
2019-05-29T22:56:53.985Z,98889.98
2019-05-29T22:59:31.804Z,98889.26
2019-05-29T23:02:00.340Z,98898.28
2019-05-29T23:04:32.440Z,98889.41
2019-05-29T23:07:04.467Z,98891.45
2019-05-29T23:09:36.435Z,98892.75
2019-05-29T23:12:08.419Z,98884.62
2019-05-29T23:14:40.353Z,98890.53
2019-05-29T23:17:12.335Z,98886.53
2019-05-29T23:19:44.303Z,98889.25
2019-05-29T23:22:16.303Z,98887.39
2019-05-29T23:24:48.273Z,98884.84
2019-05-29T23:27:20.235Z,98887.98
2019-05-29T23:29:52.704Z,98885.48
2019-05-29T23:32:24.836Z,98886.15
2019-05-29T23:34:57.149Z,98880.70
2019-05-29T23:37:29.186Z,98884.56
2019-05-29T23:40:01.323Z,98886.42
2019-05-29T23:42:33.361Z,98881.84
2019-05-29T23:45:05.582Z,98882.24
2019-05-29T23:47:37.574Z,98889.84
2019-05-29T23:50:09.846Z,98887.25
2019-05-29T23:52:41.850Z,98883.61
2019-05-29T23:55:13.857Z,98881.76
2019-05-29T23:57:45.851Z,98879.20
